Time;durP1;ratioP1;P1;durP2;ratioP2;P2;SDS_P1;SDS_P2;PMS_P1;PMS_P2;Temp;Humidity;BMP_temperature;BMP_pressure;BME280_temperature;BME280_humidity;BME280_pressure;Samples;Min_cycle;Max_cycle;Signal;HPM_P1;HPM_P2
2023/07/19 00:00:23;;;;;;;6.85;5.60;;;19.40;99.90;;;;;;5014645;28;20388;-79
2023/07/19 00:02:48;;;;;;;7.70;5.37;;;19.40;99.90;;;;;;4994514;28;20485;-79
2023/07/19 00:05:14;;;;;;;6.40;5.47;;;19.40;99.90;;;;;;4998320;28;20855;-79
2023/07/19 00:07:39;;;;;;;6.70;5.70;;;19.40;99.90;;;;;;4995616;28;20404;-79
2023/07/19 00:10:05;;;;;;;6.47;5.32;;;19.40;99.90;;;;;;4986552;28;20433;-79
2023/07/19 00:12:32;;;;;;;5.90;5.40;;;19.30;99.90;;;;;;4993477;28;20502;-79
2023/07/19 00:14:57;;;;;;;5.75;5.03;;;19.40;99.90;;;;;;4993348;28;20386;-79
2023/07/19 00:17:23;;;;;;;6.20;4.97;;;19.30;99.90;;;;;;5000608;28;20404;-79
2023/07/19 00:19:48;;;;;;;6.78;5.20;;;19.40;99.90;;;;;;4995417;28;20414;-79
2023/07/19 00:22:14;;;;;;;6.73;5.23;;;19.30;99.90;;;;;;4993712;28;20890;-80
2023/07/19 00:24:40;;;;;;;5.38;4.88;;;19.20;99.90;;;;;;4995321;28;20394;-79
2023/07/19 00:27:05;;;;;;;5.80;4.82;;;19.30;99.90;;;;;;4993883;28;20398;-79
2023/07/19 00:29:31;;;;;;;6.10;5.20;;;19.20;99.90;;;;;;4993327;28;20433;-79
2023/07/19 00:31:56;;;;;;;5.50;4.90;;;19.20;99.90;;;;;;4993530;28;20413;-79
2023/07/19 00:34:22;;;;;;;7.23;5.03;;;19.20;99.90;;;;;;4996145;28;20382;-79
2023/07/19 00:36:47;;;;;;;6.70;5.40;;;19.20;99.90;;;;;;4993116;28;20405;-79
2023/07/19 00:39:13;;;;;;;6.27;5.03;;;19.20;99.90;;;;;;5019390;23;20447;-78
2023/07/19 00:41:39;;;;;;;6.20;5.60;;;19.10;99.90;;;;;;4973061;28;20424;-79
2023/07/19 00:44:05;;;;;;;5.70;5.20;;;19.10;99.90;;;;;;4978870;28;20392;-79
2023/07/19 00:46:30;;;;;;;5.55;5.05;;;19.10;99.90;;;;;;4974747;28;20411;-79
2023/07/19 00:48:57;;;;;;;5.90;5.30;;;19.10;99.90;;;;;;4962272;28;20394;-79
2023/07/19 00:51:23;;;;;;;5.80;5.10;;;19.00;99.90;;;;;;4955082;28;20457;-79
2023/07/19 00:53:49;;;;;;;5.97;4.72;;;19.00;99.90;;;;;;4955487;28;20425;-78
2023/07/19 00:56:15;;;;;;;7.90;5.63;;;19.00;99.90;;;;;;4956621;28;21017;-77
2023/07/19 00:58:42;;;;;;;5.70;4.60;;;18.90;99.90;;;;;;4953702;28;20765;-78
2023/07/19 01:01:09;;;;;;;5.70;5.20;;;18.90;99.90;;;;;;4957033;28;20849;-78
2023/07/19 01:03:35;;;;;;;6.85;5.10;;;18.90;99.90;;;;;;4956774;28;20472;-79
2023/07/19 01:06:01;;;;;;;4.97;4.47;;;18.90;99.90;;;;;;4955772;28;20537;-78
2023/07/19 01:08:27;;;;;;;5.35;4.85;;;18.90;99.90;;;;;;4956225;28;20442;-78
2023/07/19 01:10:53;;;;;;;5.93;5.33;;;19.00;99.90;;;;;;4959535;28;20422;-79
2023/07/19 01:13:19;;;;;;;6.95;5.20;;;18.90;99.90;;;;;;4952560;29;20401;-79
2023/07/19 01:15:44;;;;;;;6.43;5.50;;;18.90;99.90;;;;;;4953749;28;20402;-79
2023/07/19 01:18:10;;;;;;;5.27;4.77;;;18.90;99.90;;;;;;4935125;29;20387;-79
2023/07/19 01:20:36;;;;;;;5.45;4.93;;;18.90;99.90;;;;;;4936071;29;20396;-79
2023/07/19 01:23:02;;;;;;;5.50;5.00;;;18.90;99.90;;;;;;4934953;29;20915;-79
2023/07/19 01:25:28;;;;;;;5.82;5.22;;;19.00;99.90;;;;;;4935946;29;20434;-79
2023/07/19 01:27:53;;;;;;;7.37;5.40;;;19.00;99.90;;;;;;4950197;28;20405;-79
2023/07/19 01:30:19;;;;;;;5.77;5.17;;;18.90;99.90;;;;;;4953416;29;20404;-79
2023/07/19 01:32:45;;;;;;;5.85;4.95;;;19.00;99.90;;;;;;4942131;28;20426;-79
2023/07/19 01:35:10;;;;;;;5.90;4.80;;;19.00;99.90;;;;;;4954903;28;20425;-79
2023/07/19 01:37:36;;;;;;;5.10;4.60;;;19.00;99.90;;;;;;4954815;28;20397;-79
2023/07/19 01:40:03;;;;;;;7.27;5.60;;;18.90;99.90;;;;;;4954798;28;20393;-79
2023/07/19 01:42:29;;;;;;;6.30;5.00;;;18.80;99.90;;;;;;4957191;28;20413;-79
2023/07/19 01:44:54;;;;;;;6.80;5.40;;;18.90;99.90;;;;;;4946091;28;20404;-79
2023/07/19 01:47:20;;;;;;;6.70;4.90;;;18.80;99.90;;;;;;4939915;29;20426;-79
2023/07/19 01:49:45;;;;;;;6.90;5.63;;;18.80;99.90;;;;;;4939466;29;20392;-79
2023/07/19 01:52:11;;;;;;;7.13;5.70;;;18.70;99.90;;;;;;4938880;29;20418;-79
2023/07/19 01:54:37;;;;;;;6.57;5.60;;;18.60;99.90;;;;;;4948352;29;20491;-78
2023/07/19 01:57:04;;;;;;;6.35;5.68;;;18.60;99.90;;;;;;4956271;28;20484;-79
2023/07/19 01:59:29;;;;;;;6.10;5.50;;;18.50;99.90;;;;;;4956516;28;20481;-79
2023/07/19 02:01:55;;;;;;;7.00;5.10;;;18.60;99.90;;;;;;4957081;29;20488;-79
2023/07/19 02:04:21;;;;;;;8.93;5.05;;;18.60;99.90;;;;;;4957022;29;20460;-79
2023/07/19 02:06:46;;;;;;;6.90;5.17;;;18.60;99.90;;;;;;4956630;29;20409;-79
2023/07/19 02:09:12;;;;;;;7.75;5.60;;;18.60;99.90;;;;;;4958850;28;20488;-79
2023/07/19 02:11:37;;;;;;;7.20;5.53;;;18.60;99.90;;;;;;4957689;28;20413;-80
2023/07/19 02:14:03;;;;;;;6.60;4.80;;;18.60;99.90;;;;;;4958352;28;20459;-79
2023/07/19 02:16:29;;;;;;;5.80;4.80;;;18.60;99.90;;;;;;4957934;28;20480;-79
2023/07/19 02:18:55;;;;;;;7.20;5.00;;;18.50;99.90;;;;;;4958549;28;20398;-79
2023/07/19 02:21:20;;;;;;;5.30;4.80;;;18.60;99.90;;;;;;4958002;28;20389;-79
2023/07/19 02:23:46;;;;;;;5.70;5.20;;;18.50;99.90;;;;;;4957685;28;20897;-79
2023/07/19 02:26:11;;;;;;;7.23;5.30;;;18.40;99.90;;;;;;4957866;28;20500;-79
2023/07/19 02:28:37;;;;;;;5.60;4.57;;;18.50;99.90;;;;;;4959424;28;20964;-80
2023/07/19 02:31:03;;;;;;;6.55;5.30;;;18.40;99.90;;;;;;4958602;28;20410;-80
2023/07/19 02:33:29;;;;;;;7.07;5.50;;;18.40;99.90;;;;;;4959118;28;20412;-80
2023/07/19 02:35:55;;;;;;;6.35;5.72;;;18.50;99.90;;;;;;4969414;28;20497;-79
2023/07/19 02:38:21;;;;;;;5.97;4.85;;;18.50;99.90;;;;;;4959743;28;20401;-79
2023/07/19 02:40:47;;;;;;;6.18;5.13;;;18.40;99.90;;;;;;4959581;28;20410;-78
2023/07/19 02:43:13;;;;;;;6.50;5.80;;;18.40;99.90;;;;;;4959518;28;20531;-79
2023/07/19 02:45:38;;;;;;;6.43;5.82;;;18.40;99.90;;;;;;4960143;28;20421;-80
2023/07/19 02:48:04;;;;;;;6.63;5.50;;;18.40;99.90;;;;;;4959444;28;20394;-79
2023/07/19 02:50:30;;;;;;;5.93;5.30;;;18.40;99.90;;;;;;4958477;28;20409;-79
2023/07/19 02:52:56;;;;;;;5.93;5.33;;;18.40;99.90;;;;;;4956555;28;20386;-79
2023/07/19 02:55:21;;;;;;;6.50;5.53;;;18.50;99.90;;;;;;4959070;28;20448;-79
2023/07/19 02:57:47;;;;;;;6.85;5.22;;;18.60;99.90;;;;;;4954526;28;20399;-79
2023/07/19 03:00:13;;;;;;;5.50;4.90;;;18.40;99.90;;;;;;4957847;28;20401;-79
2023/07/19 03:02:38;;;;;;;6.30;5.70;;;18.40;99.90;;;;;;4958592;28;20426;-79
2023/07/19 03:05:04;;;;;;;5.75;4.88;;;18.30;99.90;;;;;;4958940;28;20496;-79
2023/07/19 03:07:31;;;;;;;6.17;5.40;;;18.20;99.90;;;;;;4958500;28;20401;-80
2023/07/19 03:09:56;;;;;;;5.40;5.00;;;18.20;99.90;;;;;;4958501;28;20417;-79
2023/07/19 03:12:22;;;;;;;5.10;4.60;;;18.30;99.90;;;;;;4958559;28;20418;-80
2023/07/19 03:14:47;;;;;;;6.10;5.50;;;18.30;99.90;;;;;;4958512;28;20406;-80
2023/07/19 03:17:13;;;;;;;6.82;5.80;;;18.30;99.90;;;;;;4956626;28;20425;-80
2023/07/19 03:19:38;;;;;;;5.93;5.20;;;18.30;99.90;;;;;;4961736;28;20399;-80
2023/07/19 03:22:04;;;;;;;5.73;5.00;;;18.30;99.90;;;;;;4958061;28;20399;-79
2023/07/19 03:24:30;;;;;;;6.40;5.15;;;18.30;99.90;;;;;;4957174;29;20917;-80
2023/07/19 03:26:55;;;;;;;5.72;5.10;;;18.20;99.90;;;;;;4956232;28;20435;-80
2023/07/19 03:29:21;;;;;;;6.93;5.20;;;18.30;99.90;;;;;;4955496;28;20408;-79
2023/07/19 03:31:46;;;;;;;5.70;5.20;;;18.30;99.90;;;;;;4957898;28;20421;-79
2023/07/19 03:34:12;;;;;;;6.53;5.30;;;18.30;99.90;;;;;;4957593;28;20402;-79
2023/07/19 03:36:37;;;;;;;8.10;5.37;;;18.20;99.90;;;;;;4988220;28;20394;-79
2023/07/19 03:39:03;;;;;;;5.40;4.90;;;18.20;99.90;;;;;;4952639;28;20419;-79
2023/07/19 03:41:29;;;;;;;6.40;5.80;;;18.30;99.90;;;;;;4936893;29;20800;-79
2023/07/19 03:43:55;;;;;;;5.82;5.32;;;18.30;99.90;;;;;;4938162;29;20395;-78
2023/07/19 03:46:20;;;;;;;6.60;4.95;;;18.30;99.90;;;;;;4954478;29;20433;-79
2023/07/19 03:48:46;;;;;;;5.55;4.88;;;18.40;99.90;;;;;;4957167;28;20397;-79
2023/07/19 03:51:11;;;;;;;6.07;4.57;;;18.40;99.90;;;;;;4955979;29;20410;-79
2023/07/19 03:53:37;;;;;;;5.68;5.07;;;18.40;99.90;;;;;;4956857;28;20801;-79
2023/07/19 03:56:03;;;;;;;6.35;5.47;;;18.40;99.90;;;;;;4941658;28;20413;-79
2023/07/19 03:58:28;;;;;;;6.13;5.53;;;18.40;99.90;;;;;;4951567;29;20406;-79
2023/07/19 04:00:59;;;;;;;6.28;5.20;;;18.30;99.90;;;;;;4953967;28;20925;-79
2023/07/19 04:03:26;;;;;;;6.33;5.13;;;18.30;99.90;;;;;;4958722;28;20907;-78
2023/07/19 04:05:54;;;;;;;6.15;4.80;;;18.30;99.90;;;;;;4958391;28;20412;-78
2023/07/19 04:08:20;;;;;;;5.90;5.30;;;18.30;99.90;;;;;;4958029;28;20410;-80
2023/07/19 04:10:46;;;;;;;5.70;5.10;;;18.30;99.90;;;;;;4954973;29;20410;-78
2023/07/19 04:13:13;;;;;;;5.63;5.03;;;18.30;99.90;;;;;;4949526;28;20401;-79
2023/07/19 04:15:39;;;;;;;5.80;5.20;;;18.10;99.90;;;;;;4951381;28;20431;-79
2023/07/19 04:18:05;;;;;;;5.97;5.38;;;18.20;99.90;;;;;;4937403;29;20462;-79
2023/07/19 04:20:31;;;;;;;8.20;5.50;;;18.20;99.90;;;;;;4937528;29;20775;-78
2023/07/19 04:22:57;;;;;;;6.68;5.97;;;18.30;99.90;;;;;;4938164;29;20383;-80
2023/07/19 04:25:24;;;;;;;7.53;6.05;;;18.30;99.90;;;;;;4939488;29;20415;-79
2023/07/19 04:27:53;;;;;;;5.68;5.18;;;18.20;99.90;;;;;;4952345;28;20406;-80
2023/07/19 04:30:19;;;;;;;5.60;5.05;;;18.20;99.90;;;;;;4955487;29;21066;-79
2023/07/19 04:32:45;;;;;;;6.07;5.47;;;18.30;99.90;;;;;;4954918;29;20484;-79
2023/07/19 04:35:11;;;;;;;7.50;5.30;;;18.30;99.90;;;;;;4940939;29;20744;-79
2023/07/19 04:37:40;;;;;;;6.28;4.90;;;18.30;99.90;;;;;;4953110;28;20428;-79
2023/07/19 04:40:08;;;;;;;7.00;5.90;;;18.30;99.90;;;;;;4957045;28;20393;-79
2023/07/19 04:42:34;;;;;;;6.45;5.40;;;18.30;99.90;;;;;;4957117;28;20390;-79
2023/07/19 04:45:00;;;;;;;6.03;5.40;;;18.40;99.90;;;;;;4955398;29;20390;-79
2023/07/19 04:47:25;;;;;;;7.15;5.28;;;18.40;99.90;;;;;;4954384;28;20416;-79
2023/07/19 04:49:51;;;;;;;5.90;5.30;;;18.40;99.90;;;;;;4955672;28;20397;-79
2023/07/19 04:52:16;;;;;;;6.50;5.90;;;18.40;99.90;;;;;;4955409;28;20469;-80
2023/07/19 04:54:42;;;;;;;7.00;5.50;;;18.40;99.90;;;;;;4955721;28;20493;-79
2023/07/19 04:57:07;;;;;;;7.00;5.90;;;18.40;99.90;;;;;;4954240;28;20430;-78
2023/07/19 04:59:33;;;;;;;6.77;5.40;;;18.40;99.90;;;;;;4955636;28;20433;-79
2023/07/19 05:01:58;;;;;;;5.77;5.27;;;18.50;99.90;;;;;;4956212;28;20396;-79
2023/07/19 05:04:24;;;;;;;7.50;6.23;;;18.60;99.90;;;;;;4956488;28;20408;-79
2023/07/19 05:06:50;;;;;;;7.60;5.88;;;18.50;99.90;;;;;;4955815;28;20464;-80
2023/07/19 05:09:15;;;;;;;6.30;5.40;;;18.70;99.90;;;;;;4950044;28;20422;-79
2023/07/19 05:11:41;;;;;;;5.70;5.10;;;18.80;99.90;;;;;;4945837;28;20490;-80
2023/07/19 05:14:07;;;;;;;6.40;5.65;;;18.80;99.90;;;;;;4955737;28;20394;-79
2023/07/19 05:16:35;;;;;;;6.27;5.10;;;18.90;99.90;;;;;;4955032;28;20390;-80
2023/07/19 05:19:01;;;;;;;6.13;5.20;;;19.00;99.90;;;;;;4954528;28;20402;-80
2023/07/19 05:21:27;;;;;;;6.80;5.30;;;19.00;99.90;;;;;;4954140;28;20429;-79
2023/07/19 05:23:53;;;;;;;5.45;4.93;;;19.20;99.90;;;;;;4954383;28;20504;-79
2023/07/19 05:26:18;;;;;;;6.53;4.70;;;19.40;99.90;;;;;;4953958;28;20387;-79
2023/07/19 05:28:45;;;;;;;8.53;5.67;;;19.70;99.90;;;;;;4955400;28;20421;-79
2023/07/19 05:31:11;;;;;;;6.00;5.40;;;20.40;99.90;;;;;;4954256;28;20409;-80
2023/07/19 05:33:36;;;;;;;7.85;5.57;;;20.60;99.90;;;;;;4953747;28;20464;-80
2023/07/19 05:36:02;;;;;;;5.70;5.10;;;20.80;99.90;;;;;;4954952;28;20405;-79
2023/07/19 05:38:29;;;;;;;7.37;5.50;;;21.00;99.90;;;;;;4955861;28;20405;-80
2023/07/19 05:41:04;;;;;;;6.13;5.10;;;21.60;99.90;;;;;;4947967;28;20459;-79
2023/07/19 05:43:32;;;;;;;6.65;5.10;;;21.60;99.90;;;;;;4935720;29;20991;-80
2023/07/19 05:46:07;;;;;;;6.30;5.13;;;21.90;99.90;;;;;;4937009;29;20387;-80
2023/07/19 05:48:33;;;;;;;5.80;5.07;;;22.00;99.90;;;;;;4936819;29;20879;-80
2023/07/19 05:51:00;;;;;;;5.63;5.00;;;21.90;99.90;;;;;;4942919;29;20470;-80
2023/07/19 05:53:25;;;;;;;7.30;5.18;;;22.00;99.90;;;;;;4955469;28;20409;-80
2023/07/19 05:55:52;;;;;;;6.07;5.20;;;22.10;99.90;;;;;;4955873;28;20394;-80
2023/07/19 05:58:18;;;;;;;6.15;5.03;;;22.00;99.90;;;;;;4939570;29;20431;-81
2023/07/19 06:00:44;;;;;;;7.07;4.97;;;22.10;99.90;;;;;;4936241;29;20923;-80
2023/07/19 06:03:10;;;;;;;5.80;4.78;;;22.10;99.90;;;;;;4937796;29;20391;-81
2023/07/19 06:05:35;;;;;;;5.93;4.75;;;22.10;99.90;;;;;;4947479;29;20391;-80
2023/07/19 06:08:01;;;;;;;6.63;5.60;;;22.30;99.90;;;;;;4951786;28;20401;-80
2023/07/19 06:10:27;;;;;;;5.47;4.85;;;22.30;99.90;;;;;;4939214;29;20399;-81
2023/07/19 06:12:54;;;;;;;5.93;4.80;;;22.60;99.90;;;;;;4938681;29;20442;-80
2023/07/19 06:15:20;;;;;;;6.47;4.75;;;22.70;99.90;;;;;;4936683;29;20392;-80
2023/07/19 06:17:46;;;;;;;5.13;4.68;;;22.60;99.90;;;;;;4939963;29;20391;-79
2023/07/19 06:20:11;;;;;;;6.00;4.90;;;22.70;99.90;;;;;;4948385;29;20439;-79
2023/07/19 06:22:37;;;;;;;6.13;4.80;;;22.70;99.90;;;;;;4939641;29;20430;-80
2023/07/19 06:25:03;;;;;;;7.63;4.50;;;22.70;99.90;;;;;;4938912;29;20839;-80
2023/07/19 06:27:29;;;;;;;8.07;4.88;;;22.70;99.90;;;;;;4936901;29;20764;-79
2023/07/19 06:29:54;;;;;;;5.00;4.50;;;23.00;99.90;;;;;;4945607;29;20811;-81
2023/07/19 06:32:20;;;;;;;6.53;4.90;;;23.00;99.90;;;;;;4960610;28;20422;-80
2023/07/19 06:34:46;;;;;;;6.10;4.82;;;23.00;99.90;;;;;;4959010;29;20402;-80
2023/07/19 06:37:11;;;;;;;4.85;4.35;;;23.10;99.90;;;;;;4958126;28;20928;-80
2023/07/19 06:42:06;;;;;;;5.38;4.53;;;23.20;99.90;;;;;;4991908;28;20457;-82
2023/07/19 06:44:32;;;;;;;5.82;4.70;;;23.30;99.90;;;;;;4993423;28;20878;-80
2023/07/19 06:46:59;;;;;;;7.87;4.30;;;23.30;99.90;;;;;;4991825;28;20815;-81
2023/07/19 06:49:25;;;;;;;5.70;4.50;;;23.40;99.90;;;;;;4993660;28;20747;-81
2023/07/19 06:51:50;;;;;;;6.57;4.23;;;23.50;99.90;;;;;;4992044;28;20424;-80
2023/07/19 06:54:16;;;;;;;4.97;4.47;;;23.40;99.90;;;;;;4995475;28;20430;-81
2023/07/19 06:56:42;;;;;;;6.80;4.50;;;23.30;99.90;;;;;;4997676;28;20805;-80
2023/07/19 06:59:07;;;;;;;7.63;4.55;;;23.30;99.90;;;;;;4985708;28;20838;-80
2023/07/19 07:01:33;;;;;;;5.40;4.30;;;23.50;99.90;;;;;;4987779;28;20396;-80
2023/07/19 07:03:58;;;;;;;5.82;4.53;;;23.50;99.90;;;;;;4981302;28;20532;-80
2023/07/19 07:06:24;;;;;;;5.30;4.73;;;23.60;99.90;;;;;;4984505;28;20767;-80
2023/07/19 07:08:49;;;;;;;6.20;4.65;;;23.60;99.90;;;;;;4982683;28;20477;-81
2023/07/19 07:11:15;;;;;;;5.97;4.50;;;23.70;99.90;;;;;;4998841;28;20465;-80
2023/07/19 07:13:40;;;;;;;4.37;3.90;;;23.70;99.90;;;;;;4990999;28;20399;-78
2023/07/19 07:16:06;;;;;;;4.60;4.20;;;23.70;99.90;;;;;;4987521;28;20395;-79
2023/07/19 07:18:32;;;;;;;4.80;4.30;;;23.60;99.90;;;;;;4966072;28;20392;-80
2023/07/19 07:20:57;;;;;;;6.57;4.70;;;23.70;99.90;;;;;;4985191;28;20430;-80
2023/07/19 07:23:23;;;;;;;5.38;4.65;;;23.70;99.90;;;;;;4983371;28;20852;-81
2023/07/19 07:25:55;;;;;;;8.00;4.70;;;23.80;99.90;;;;;;4977576;28;20418;-80
2023/07/19 07:28:21;;;;;;;5.20;4.00;;;23.90;99.90;;;;;;4977493;28;20395;-80
2023/07/19 07:30:46;;;;;;;5.10;4.60;;;24.00;99.90;;;;;;4996253;28;20394;-80
2023/07/19 07:33:12;;;;;;;5.70;4.30;;;24.00;99.90;;;;;;4993159;28;20469;-80
2023/07/19 07:35:37;;;;;;;6.05;4.10;;;24.20;99.90;;;;;;4997137;28;20866;-81
2023/07/19 07:38:03;;;;;;;4.90;4.40;;;24.10;99.90;;;;;;4995743;28;20437;-79
2023/07/19 07:40:29;;;;;;;5.32;4.28;;;24.10;99.90;;;;;;4994167;28;20407;-79
2023/07/19 07:42:55;;;;;;;5.00;4.20;;;24.30;99.90;;;;;;4995096;28;20830;-80
2023/07/19 07:45:20;;;;;;;10.55;4.40;;;24.40;99.90;;;;;;4977964;28;20449;-80
2023/07/19 07:47:46;;;;;;;6.73;4.40;;;24.40;99.90;;;;;;4995561;28;20879;-80
2023/07/19 07:50:11;;;;;;;5.40;4.10;;;24.50;99.90;;;;;;4985187;28;20454;-79
2023/07/19 07:52:37;;;;;;;4.85;3.70;;;24.50;99.90;;;;;;4958684;28;20493;-79
2023/07/19 07:55:06;;;;;;;4.75;4.10;;;24.50;99.90;;;;;;4976005;28;20392;-80
2023/07/19 07:57:37;;;;;;;4.70;3.90;;;24.60;99.90;;;;;;4976783;28;20374;-79
2023/07/19 08:00:06;;;;;;;5.53;4.03;;;24.70;99.90;;;;;;4967523;28;20402;-80
2023/07/19 08:02:31;;;;;;;6.40;4.10;;;24.90;99.90;;;;;;4994878;28;20402;-79
2023/07/19 08:04:57;;;;;;;5.80;4.00;;;25.00;99.90;;;;;;4993937;28;20383;-78
2023/07/19 08:07:25;;;;;;;5.53;4.07;;;25.10;99.90;;;;;;4993706;28;20429;-79
2023/07/19 08:09:52;;;;;;;5.30;4.43;;;25.10;99.90;;;;;;4995532;28;20884;-79
2023/07/19 08:12:18;;;;;;;5.18;4.13;;;25.20;99.90;;;;;;4976674;28;20430;-80
2023/07/19 08:14:43;;;;;;;5.80;3.93;;;25.30;99.90;;;;;;4994298;28;20390;-80
2023/07/19 08:17:09;;;;;;;5.15;4.20;;;25.30;99.90;;;;;;4993445;28;20429;-78
2023/07/19 08:19:35;;;;;;;4.70;4.00;;;25.20;99.90;;;;;;4977639;28;20414;-78
2023/07/19 08:22:04;;;;;;;6.03;3.75;;;25.20;99.90;;;;;;4981776;28;20911;-80
2023/07/19 08:24:31;;;;;;;5.10;4.30;;;25.20;99.90;;;;;;4975494;28;20397;-80
2023/07/19 08:26:56;;;;;;;4.40;4.00;;;25.20;99.90;;;;;;4974652;28;20888;-81
2023/07/19 08:29:23;;;;;;;5.97;4.15;;;25.20;99.90;;;;;;4975147;28;20479;-81
2023/07/19 08:31:48;;;;;;;4.72;3.90;;;25.20;99.90;;;;;;4983855;28;20425;-80
2023/07/19 08:34:14;;;;;;;5.20;4.20;;;25.30;99.90;;;;;;4993243;28;20417;-80
2023/07/19 08:36:39;;;;;;;5.07;4.20;;;25.40;99.90;;;;;;4995406;28;20484;-79
2023/07/19 08:39:05;;;;;;;4.60;4.00;;;25.40;99.90;;;;;;4994194;28;20398;-79
2023/07/19 08:41:33;;;;;;;4.77;4.13;;;25.30;99.90;;;;;;4998010;28;20461;-80
2023/07/19 08:43:59;;;;;;;4.73;3.90;;;25.20;99.90;;;;;;4995289;28;20399;-80
2023/07/19 08:46:25;;;;;;;4.45;4.05;;;25.50;99.90;;;;;;4995078;28;20441;-80
2023/07/19 08:48:50;;;;;;;4.50;4.10;;;25.60;99.90;;;;;;4975876;28;20403;-81
2023/07/19 08:51:17;;;;;;;4.77;4.17;;;25.60;99.90;;;;;;4981823;28;20457;-80
2023/07/19 08:53:43;;;;;;;7.00;4.40;;;25.60;99.90;;;;;;4981935;28;20380;-81
2023/07/19 08:56:11;;;;;;;6.40;4.20;;;25.50;99.90;;;;;;4980183;28;20461;-80
2023/07/19 08:58:39;;;;;;;5.63;4.40;;;25.70;99.90;;;;;;4979812;28;20770;-81
2023/07/19 09:01:08;;;;;;;4.80;4.20;;;25.60;99.90;;;;;;4978746;28;20390;-84
2023/07/19 09:03:34;;;;;;;4.30;3.90;;;25.60;99.90;;;;;;4990091;28;20450;-78
2023/07/19 09:06:01;;;;;;;4.50;4.10;;;25.70;99.90;;;;;;4990935;28;20398;-80
2023/07/19 09:08:40;;;;;;;5.80;4.57;;;25.70;99.90;;;;;;4976743;28;20465;-79
2023/07/19 09:11:06;;;;;;;5.55;4.50;;;26.00;99.90;;;;;;4994438;28;20414;-79
2023/07/19 09:13:36;;;;;;;4.90;4.40;;;25.90;99.90;;;;;;4976883;28;20751;-79
2023/07/19 09:16:03;;;;;;;5.88;4.53;;;26.00;99.90;;;;;;4994555;28;20394;-80
2023/07/19 09:18:36;;;;;;;5.80;4.47;;;26.10;99.90;;;;;;4976184;28;20460;-80
2023/07/19 09:21:04;;;;;;;5.50;4.68;;;26.10;99.90;;;;;;4994368;28;20831;-80
2023/07/19 09:23:34;;;;;;;4.80;4.37;;;26.20;99.90;;;;;;4987319;28;20419;-79
2023/07/19 09:25:59;;;;;;;5.10;4.60;;;26.30;99.90;;;;;;4986306;28;20878;-80
2023/07/19 09:28:25;;;;;;;4.43;4.00;;;26.30;99.90;;;;;;4990598;28;20442;-83
2023/07/19 09:30:56;;;;;;;6.45;4.40;;;26.40;99.90;;;;;;4976616;28;20511;-80
2023/07/19 09:33:21;;;;;;;4.80;4.35;;;26.50;99.90;;;;;;5003000;28;20387;-79
2023/07/19 09:35:53;;;;;;;5.93;4.73;;;26.70;99.90;;;;;;4994368;28;20397;-79
2023/07/19 09:38:20;;;;;;;6.07;4.30;;;26.80;99.90;;;;;;4995569;28;20382;-80
2023/07/19 09:40:46;;;;;;;6.20;4.53;;;26.70;99.90;;;;;;4995919;28;20433;-79
2023/07/19 09:43:14;;;;;;;5.30;4.40;;;26.70;99.90;;;;;;4997450;28;20434;-81
2023/07/19 09:45:40;;;;;;;5.77;4.43;;;26.50;99.90;;;;;;4977744;28;20395;-81
2023/07/19 09:48:08;;;;;;;5.70;4.50;;;26.60;99.90;;;;;;4959810;28;20430;-80
2023/07/19 09:50:37;;;;;;;4.80;4.30;;;26.70;99.90;;;;;;4975025;28;20392;-80
2023/07/19 09:53:03;;;;;;;5.70;4.40;;;26.90;99.90;;;;;;4981038;28;20549;-80
2023/07/19 09:55:31;;;;;;;4.90;4.40;;;26.90;99.90;;;;;;4977284;28;20437;-81
2023/07/19 09:57:57;;;;;;;5.00;4.50;;;26.90;99.90;;;;;;4956612;28;20399;-80
2023/07/19 10:00:23;;;;;;;7.23;4.60;;;27.00;99.90;;;;;;4958017;28;20392;-80
2023/07/19 10:02:48;;;;;;;7.20;4.10;;;26.90;99.90;;;;;;4981855;28;20464;-81
2023/07/19 10:05:14;;;;;;;5.05;4.20;;;27.00;99.90;;;;;;4981920;28;20383;-81
2023/07/19 10:07:40;;;;;;;6.50;3.97;;;27.00;99.90;;;;;;4981411;28;20848;-80
2023/07/19 10:10:06;;;;;;;7.03;4.60;;;26.90;99.90;;;;;;4998783;28;20908;-80
2023/07/19 10:12:36;;;;;;;5.07;4.40;;;27.20;99.90;;;;;;4994618;28;20408;-80
2023/07/19 10:15:07;;;;;;;4.38;3.97;;;27.10;99.90;;;;;;4997515;28;20437;-81
2023/07/19 10:17:43;;;;;;;5.50;4.13;;;27.20;99.90;;;;;;5000113;28;20386;-81
2023/07/19 10:20:14;;;;;;;5.80;4.00;;;27.20;99.90;;;;;;4999402;28;20767;-81
2023/07/19 10:22:55;;;;;;;4.40;4.00;;;27.30;99.90;;;;;;4999540;28;20399;-81
2023/07/19 10:25:24;;;;;;;4.22;3.92;;;27.30;99.90;;;;;;4998964;28;20398;-81
2023/07/19 10:27:55;;;;;;;5.53;4.10;;;27.40;99.90;;;;;;4981138;28;20408;-80
2023/07/19 10:30:21;;;;;;;5.15;4.15;;;27.40;99.90;;;;;;4982177;28;20388;-78
2023/07/19 10:32:50;;;;;;;4.50;4.10;;;27.50;99.90;;;;;;4967209;28;20435;-79
2023/07/19 10:35:31;;;;;;;5.45;4.20;;;27.60;99.90;;;;;;5001727;28;20387;-80
2023/07/19 10:37:57;;;;;;;4.50;4.10;;;27.40;99.90;;;;;;4984615;28;20400;-80
2023/07/19 10:40:22;;;;;;;5.40;3.90;;;27.30;99.90;;;;;;4982991;28;20396;-80
2023/07/19 10:42:48;;;;;;;4.73;3.63;;;27.40;99.90;;;;;;4984367;28;20404;-81
2023/07/19 10:45:14;;;;;;;5.45;4.15;;;27.60;99.90;;;;;;4983588;28;20432;-79
2023/07/19 10:47:41;;;;;;;4.83;3.57;;;27.60;99.90;;;;;;4997797;28;20901;-82
2023/07/19 10:50:10;;;;;;;4.40;4.00;;;27.70;99.90;;;;;;4981903;28;20403;-81
2023/07/19 10:52:35;;;;;;;4.78;3.95;;;27.80;99.90;;;;;;4978533;28;20396;-81
2023/07/19 10:55:01;;;;;;;5.63;3.90;;;27.90;99.90;;;;;;4994658;28;20506;-81
2023/07/19 10:57:27;;;;;;;5.90;3.90;;;27.40;99.90;;;;;;4981569;28;20401;-81
2023/07/19 10:59:53;;;;;;;4.15;3.60;;;27.40;99.90;;;;;;4996205;28;20402;-80
2023/07/19 11:02:19;;;;;;;4.85;3.15;;;27.70;99.90;;;;;;4995434;28;20401;-80
2023/07/19 11:04:48;;;;;;;3.72;3.38;;;27.60;99.90;;;;;;4986196;28;20408;-80
2023/07/19 11:07:14;;;;;;;4.20;3.50;;;27.70;99.90;;;;;;4978361;28;20483;-80
2023/07/19 11:09:48;;;;;;;5.03;3.40;;;28.00;99.90;;;;;;4978432;28;20854;-80
2023/07/19 11:12:14;;;;;;;5.30;3.42;;;28.10;99.90;;;;;;4978658;28;20420;-80
2023/07/19 11:14:53;;;;;;;4.00;3.60;;;28.00;99.90;;;;;;4986415;28;20497;-80
2023/07/19 11:17:29;;;;;;;4.10;3.30;;;28.00;99.90;;;;;;4979796;28;20758;-81
2023/07/19 11:19:57;;;;;;;4.10;3.60;;;28.00;99.90;;;;;;4998327;28;20422;-80
2023/07/19 11:22:24;;;;;;;4.23;3.83;;;28.20;99.90;;;;;;4997195;28;20395;-82
2023/07/19 11:24:52;;;;;;;3.85;3.10;;;28.30;99.90;;;;;;4985085;28;20461;-82
2023/07/19 11:27:18;;;;;;;4.18;3.20;;;28.30;99.90;;;;;;4961464;28;20408;-80
2023/07/19 11:29:49;;;;;;;3.75;3.05;;;28.40;99.90;;;;;;4987619;28;20439;-81
2023/07/19 11:32:18;;;;;;;3.15;2.92;;;28.70;99.90;;;;;;5007129;28;20896;-80
2023/07/19 11:34:49;;;;;;;3.38;2.92;;;29.00;99.90;;;;;;4979852;28;20870;-80
2023/07/19 11:37:27;;;;;;;3.75;2.80;;;28.90;99.90;;;;;;4997527;28;20421;-81
2023/07/19 11:39:57;;;;;;;3.30;3.00;;;29.10;99.90;;;;;;4978485;28;20398;-80
2023/07/19 11:42:47;;;;;;;4.53;3.50;;;29.30;99.90;;;;;;4978036;28;20773;-80
2023/07/19 11:45:19;;;;;;;3.95;2.95;;;29.40;99.90;;;;;;4959749;28;20443;-81
2023/07/19 11:47:47;;;;;;;3.22;2.80;;;29.70;99.90;;;;;;4960423;28;20451;-81
2023/07/19 11:50:13;;;;;;;5.45;3.50;;;30.40;99.90;;;;;;4977885;28;20396;-82
2023/07/19 11:52:47;;;;;;;5.35;2.97;;;30.80;99.90;;;;;;4995795;28;20460;-80
2023/07/19 11:55:17;;;;;;;4.05;2.97;;;30.70;99.90;;;;;;4976935;28;20478;-81
2023/07/19 11:57:44;;;;;;;5.07;3.30;;;30.60;99.90;;;;;;4971732;28;20397;-78
2023/07/19 12:00:11;;;;;;;6.47;3.30;;;30.90;99.90;;;;;;4967071;28;20481;-79
2023/07/19 12:02:37;;;;;;;3.20;2.90;;;31.10;99.90;;;;;;4976541;28;20388;-80
2023/07/19 12:05:04;;;;;;;4.25;3.15;;;31.40;99.90;;;;;;4964671;28;20413;-81
2023/07/19 12:07:31;;;;;;;4.28;3.80;;;30.20;99.90;;;;;;4979942;28;20481;-81
2023/07/19 12:09:57;;;;;;;4.50;3.30;;;29.20;99.90;;;;;;5000155;28;20401;-81
2023/07/19 12:12:23;;;;;;;3.67;3.20;;;28.90;99.90;;;;;;4981452;28;20450;-81
2023/07/19 12:14:48;;;;;;;4.43;3.10;;;28.80;99.90;;;;;;4992956;28;20388;-80
2023/07/19 12:17:14;;;;;;;3.85;3.20;;;28.20;99.90;;;;;;4982028;28;20396;-81
2023/07/19 12:19:39;;;;;;;4.13;3.30;;;28.40;99.90;;;;;;4983072;28;20392;-80
2023/07/19 12:22:05;;;;;;;4.30;3.00;;;29.30;99.90;;;;;;4980388;28;20442;-82
2023/07/19 12:24:30;;;;;;;3.03;2.70;;;29.40;99.90;;;;;;4967150;28;20833;-81
2023/07/19 12:26:56;;;;;;;5.53;3.10;;;29.60;99.90;;;;;;4998815;28;20469;-78
2023/07/19 12:29:21;;;;;;;2.87;2.57;;;29.70;99.90;;;;;;4962441;28;20478;-81
2023/07/19 12:31:47;;;;;;;4.67;3.27;;;29.60;99.90;;;;;;4976448;28;20408;-82
2023/07/19 12:34:12;;;;;;;3.22;2.88;;;28.70;99.90;;;;;;4982729;28;20483;-82
2023/07/19 12:36:38;;;;;;;3.50;2.87;;;28.40;99.90;;;;;;4976265;28;20450;-81
2023/07/19 12:39:04;;;;;;;4.30;2.80;;;28.30;99.90;;;;;;4967922;28;20472;-80
2023/07/19 12:41:30;;;;;;;4.15;3.20;;;28.80;99.90;;;;;;5008791;23;20922;-84
2023/07/19 12:43:56;;;;;;;5.95;3.03;;;29.60;99.90;;;;;;4975822;28;20427;-84
2023/07/19 12:46:22;;;;;;;3.70;3.40;;;30.30;99.90;;;;;;4993657;28;20806;-85